createdAt,value
2023-04-01T00:00:12.875Z,98173.09
2023-04-01T00:02:42.922Z,98172.50
2023-04-01T00:05:12.980Z,98170.84
2023-04-01T00:07:42.762Z,98170.38
2023-04-01T00:10:14.891Z,98166.28
2023-04-01T00:12:44.177Z,98168.84
2023-04-01T00:15:14.485Z,98169.47
2023-04-01T00:17:44.909Z,98170.38
2023-04-01T00:20:15.466Z,98171.72
2023-04-01T00:22:45.672Z,98172.81
2023-04-01T00:25:16.509Z,98173.09
2023-04-01T00:27:45.441Z,98170.38
2023-04-01T00:30:14.762Z,98167.66
2023-04-01T00:32:43.704Z,98170.38
2023-04-01T00:35:13.610Z,98177.44
2023-04-01T00:37:42.565Z,98169.75
2023-04-01T00:40:27.525Z,98169.75
2023-04-01T00:42:57.003Z,98168.88
2023-04-01T00:45:36.246Z,98166.16
2023-04-01T00:48:09.655Z,98163.16
2023-04-01T00:50:40.709Z,98160.72
2023-04-01T00:53:10.770Z,98162.22
2023-04-01T00:55:46.145Z,98166.63
2023-04-01T00:58:17.135Z,98165.53
2023-04-01T01:00:48.755Z,98174.00
2023-04-01T01:03:17.876Z,98170.06
2023-04-01T01:06:10.037Z,98169.50
2023-04-01T01:09:00.566Z,98167.66
2023-04-01T01:11:43.816Z,98169.31
2023-04-01T01:14:36.977Z,98170.06
2023-04-01T01:17:16.188Z,98165.72
2023-04-01T01:20:12.806Z,98170.06
2023-04-01T01:23:05.709Z,98168.09
2023-04-01T01:25:44.038Z,98165.72
2023-04-01T01:28:37.611Z,98169.50
2023-04-01T01:31:15.166Z,98173.69
2023-04-01T01:34:09.871Z,98168.28
2023-04-01T01:36:43.705Z,98167.50
2023-04-01T01:39:16.149Z,98161.47
2023-04-01T01:41:50.537Z,98160.72
2023-04-01T01:44:21.235Z,98162.84
2023-04-01T01:46:50.821Z,98160.72
2023-04-01T01:49:21.289Z,98164.19
2023-04-01T01:51:51.641Z,98163.75
2023-04-01T01:54:21.057Z,98164.78
2023-04-01T01:56:55.691Z,98171.44
2023-04-01T01:59:27.074Z,98174.00
2023-04-01T02:02:00.077Z,98179.25
2023-04-01T02:04:29.590Z,98178.34
2023-04-01T02:07:04.804Z,98172.47
2023-04-01T02:09:35.327Z,98175.97
2023-04-01T02:12:08.320Z,98175.34
2023-04-01T02:14:45.813Z,98174.63
2023-04-01T02:17:19.247Z,98187.41
2023-04-01T02:19:52.013Z,98189.69
2023-04-01T02:22:26.622Z,98189.69
2023-04-01T02:25:00.429Z,98188.59
2023-04-01T02:27:30.608Z,98187.84
2023-04-01T02:30:00.545Z,98191.47
2023-04-01T02:32:31.874Z,98192.53
2023-04-01T02:35:04.383Z,98184.56
2023-04-01T02:37:36.275Z,98189.69
2023-04-01T02:40:08.708Z,98196.28
2023-04-01T02:42:37.893Z,98186.03
2023-04-01T02:45:08.135Z,98187.56
2023-04-01T02:47:37.247Z,98184.25
2023-04-01T02:50:07.703Z,98191.47
2023-04-01T02:52:38.537Z,98180.00
2023-04-01T02:55:08.964Z,98194.19
2023-04-01T02:57:38.199Z,98196.00
2023-04-01T03:00:12.218Z,98195.53
2023-04-01T03:02:41.568Z,98196.75
2023-04-01T03:05:11.244Z,98198.69
2023-04-01T03:07:41.657Z,98197.50
2023-04-01T03:10:11.673Z,98203.69
2023-04-01T03:12:41.695Z,98206.25
2023-04-01T03:15:13.240Z,98206.41
2023-04-01T03:17:43.237Z,98204.28
2023-04-01T03:20:13.712Z,98212.28
2023-04-01T03:22:44.025Z,98208.38
2023-04-01T03:25:13.268Z,98205.94
2023-04-01T03:27:42.475Z,98215.59
2023-04-01T03:30:12.349Z,98217.53
2023-04-01T03:32:50.206Z,98223.09
2023-04-01T03:35:19.567Z,98230.06
2023-04-01T03:37:50.085Z,98226.75
2023-04-01T03:40:19.244Z,98226.28
2023-04-01T03:42:48.706Z,98229.59
2023-04-01T03:45:17.782Z,98235.19
2023-04-01T03:47:46.809Z,98231.13
2023-04-01T03:50:15.739Z,98235.16
2023-04-01T03:52:45.308Z,98225.81
2023-04-01T03:55:16.608Z,98231.84
2023-04-01T03:57:46.102Z,98226.69
2023-04-01T04:00:21.253Z,98231.97
2023-04-01T04:02:56.298Z,98234.78
2023-04-01T04:05:31.025Z,98232.34
2023-04-01T04:08:00.697Z,98235.53
2023-04-01T04:10:31.121Z,98238.53
2023-04-01T04:13:00.227Z,98246.66
2023-04-01T04:15:32.173Z,98249.22
2023-04-01T04:18:01.493Z,98256.44
2023-04-01T04:20:30.506Z,98259.66
2023-04-01T04:22:59.495Z,98263.44
2023-04-01T04:25:28.466Z,98266.75
2023-04-01T04:27:58.898Z,98266.31
2023-04-01T04:30:27.823Z,98267.81
2023-04-01T04:32:56.827Z,98267.25
2023-04-01T04:35:25.932Z,98275.25
2023-04-01T04:37:54.996Z,98274.63
2023-04-01T04:40:24.079Z,98272.34
2023-04-01T04:42:53.040Z,98277.94
2023-04-01T04:45:23.803Z,98269.47
2023-04-01T04:47:57.388Z,98288.31
2023-04-01T04:50:27.230Z,98288.16
2023-04-01T04:52:56.301Z,98287.22
2023-04-01T04:55:25.645Z,98279.34
2023-04-01T04:58:13.459Z,98283.84
2023-04-01T05:00:47.101Z,98285.75
2023-04-01T05:03:23.307Z,98290.59
2023-04-01T05:05:54.997Z,98293.72
2023-04-01T05:08:25.353Z,98292.81
2023-04-01T05:10:54.281Z,98289.28
2023-04-01T05:13:23.385Z,98281.09
2023-04-01T05:15:54.328Z,98290.88
2023-04-01T05:18:23.856Z,98291.91
2023-04-01T05:20:54.674Z,98291.91
2023-04-01T05:23:24.695Z,98289.63
2023-04-01T05:25:54.499Z,98290.00
2023-04-01T05:28:24.410Z,98298.19
2023-04-01T05:30:55.088Z,98294.50
2023-04-01T05:33:26.995Z,98305.06
2023-04-01T05:35:56.461Z,98297.66
2023-04-01T05:38:25.452Z,98302.72
2023-04-01T05:41:01.319Z,98298.56
2023-04-01T05:43:32.194Z,98287.97
2023-04-01T05:46:11.192Z,98298.19
2023-04-01T05:48:49.933Z,98299.00
2023-04-01T05:51:19.131Z,98299.59
2023-04-01T05:53:48.479Z,98295.47
2023-04-01T05:56:17.623Z,98302.94
2023-04-01T05:58:54.444Z,98300.91
2023-04-01T06:01:27.145Z,98308.13
2023-04-01T06:03:56.536Z,98311.97
2023-04-01T06:06:28.004Z,98316.69
2023-04-01T06:09:18.511Z,98320.88
2023-04-01T06:12:33.968Z,98318.09
2023-04-01T06:15:16.767Z,98324.66
2023-04-01T06:18:01.678Z,98324.31
2023-04-01T06:20:40.545Z,98329.75
2023-04-01T06:23:23.356Z,98328.50
2023-04-01T06:26:05.273Z,98333.34
2023-04-01T06:29:09.782Z,98324.91
2023-04-01T06:31:54.076Z,98334.00
2023-04-01T06:34:56.725Z,98327.94
2023-04-01T06:37:42.500Z,98335.34
2023-04-01T06:40:40.325Z,98343.13
2023-04-01T06:43:23.025Z,98334.16
2023-04-01T06:46:20.556Z,98336.28
2023-04-01T06:49:30.584Z,98336.94
2023-04-01T06:52:26.707Z,98336.34
2023-04-01T06:55:27.272Z,98337.63
2023-04-01T06:58:23.496Z,98340.47
2023-04-01T07:00:56.552Z,98344.09
2023-04-01T07:03:34.240Z,98346.44
2023-04-01T07:06:06.878Z,98342.66
2023-04-01T07:08:46.302Z,98334.88
2023-04-01T07:11:24.830Z,98334.09
2023-04-01T07:14:32.840Z,98345.75
2023-04-01T07:17:08.525Z,98336.31
2023-04-01T07:19:43.528Z,98338.25
2023-04-01T07:22:29.165Z,98347.81
2023-04-01T07:25:14.621Z,98347.00
2023-04-01T07:27:46.087Z,98348.06
2023-04-01T07:30:18.017Z,98353.63
2023-04-01T07:32:54.745Z,98352.34
2023-04-01T07:35:29.930Z,98357.53
2023-04-01T07:38:13.535Z,98360.47
2023-04-01T07:40:50.939Z,98363.13
2023-04-01T07:43:33.297Z,98362.47
2023-04-01T07:46:41.985Z,98365.97
2023-04-01T07:49:17.409Z,98368.06
2023-04-01T07:51:59.933Z,98375.94
2023-04-01T07:54:40.595Z,98374.81
2023-04-01T07:57:16.920Z,98392.59
2023-04-01T08:00:04.309Z,98385.84
2023-04-01T08:03:12.410Z,98384.69
2023-04-01T08:05:49.691Z,98384.16
2023-04-01T08:08:27.336Z,98388.19
2023-04-01T08:11:31.357Z,98391.88
2023-04-01T08:14:27.526Z,98391.25
2023-04-01T08:17:22.866Z,98395.53
2023-04-01T08:20:03.612Z,98401.97
2023-04-01T08:22:42.708Z,98401.38
2023-04-01T08:25:40.051Z,98404.59
2023-04-01T08:28:18.502Z,98400.91
2023-04-01T08:30:54.724Z,98408.25
2023-04-01T08:33:27.803Z,98410.59
2023-04-01T08:36:10.620Z,98411.72
2023-04-01T08:38:45.864Z,98405.94
2023-04-01T08:41:22.437Z,98407.97
2023-04-01T08:44:44.275Z,98416.41
2023-04-01T08:47:33.231Z,98416.47
2023-04-01T08:50:32.814Z,98414.94
2023-04-01T08:53:32.812Z,98419.00
2023-04-01T08:56:12.676Z,98414.84
2023-04-01T08:59:14.483Z,98414.38
2023-04-01T09:02:03.513Z,98419.22
2023-04-01T09:05:43.369Z,98418.41
2023-04-01T09:08:35.578Z,98420.47
2023-04-01T09:11:17.992Z,98419.25
2023-04-01T09:14:22.438Z,98423.53
2023-04-01T09:17:36.872Z,98424.44
2023-04-01T09:20:37.442Z,98423.03
2023-04-01T09:23:29.524Z,98425.31
2023-04-01T09:26:20.208Z,98429.25
2023-04-01T09:29:03.470Z,98428.78
2023-04-01T09:31:52.313Z,98432.03
2023-04-01T09:34:57.001Z,98449.69
2023-04-01T09:37:37.979Z,98445.03
2023-04-01T09:40:19.986Z,98440.91
2023-04-01T09:43:17.603Z,98442.88
2023-04-01T09:46:09.413Z,98440.25
2023-04-01T09:49:10.420Z,98444.09
2023-04-01T09:51:52.990Z,98450.78
2023-04-01T09:54:32.983Z,98450.75
2023-04-01T09:57:24.672Z,98456.38
2023-04-01T10:00:41.055Z,98456.19
2023-04-01T10:03:50.828Z,98455.19
2023-04-01T10:06:55.200Z,98464.91
2023-04-01T10:10:12.180Z,98458.81
2023-04-01T10:13:24.284Z,98464.22
2023-04-01T10:16:32.467Z,98463.50
2023-04-01T10:19:55.168Z,98464.09
2023-04-01T10:23:08.006Z,98470.72
2023-04-01T10:25:56.227Z,98473.34
2023-04-01T10:28:50.066Z,98476.63
2023-04-01T10:32:14.334Z,98480.22
2023-04-01T10:35:46.225Z,98483.84
2023-04-01T10:38:42.919Z,98482.53
2023-04-01T10:41:48.433Z,98485.66
2023-04-01T10:45:19.664Z,98490.03
2023-04-01T10:48:52.069Z,98489.09
2023-04-01T10:51:34.523Z,98487.09
2023-04-01T10:54:23.471Z,98483.06
2023-04-01T10:57:35.813Z,98478.22
2023-04-01T11:01:09.893Z,98479.84
2023-04-01T11:04:34.197Z,98479.81
2023-04-01T11:08:06.513Z,98479.06
2023-04-01T11:11:19.710Z,98490.53
2023-04-01T11:14:19.982Z,98492.34
2023-04-01T11:17:15.960Z,98482.44
2023-04-01T11:20:17.090Z,98483.94
2023-04-01T11:23:01.419Z,98488.75
2023-04-01T11:26:06.181Z,98495.28
2023-04-01T11:29:32.657Z,98496.09
2023-04-01T11:32:28.080Z,98496.56
2023-04-01T11:35:14.862Z,98498.16
2023-04-01T11:37:52.106Z,98500.75
2023-04-01T11:41:09.599Z,98494.63
2023-04-01T11:44:23.646Z,98489.84
2023-04-01T11:47:26.962Z,98499.75
2023-04-01T11:50:16.860Z,98494.47
2023-04-01T11:53:21.496Z,98498.25
2023-04-01T11:56:01.978Z,98502.28
2023-04-01T11:59:01.192Z,98501.66
2023-04-01T12:01:45.699Z,98510.69
2023-04-01T12:04:42.609Z,98510.78
2023-04-01T12:07:21.511Z,98511.50
2023-04-01T12:09:58.580Z,98509.81
2023-04-01T12:12:47.729Z,98510.22
2023-04-01T12:15:31.498Z,98507.09
2023-04-01T12:18:13.027Z,98512.50
2023-04-01T12:20:51.301Z,98507.09
2023-04-01T12:23:55.572Z,98510.09
2023-04-01T12:26:58.335Z,98507.50
2023-04-01T12:29:55.928Z,98510.38
2023-04-01T12:32:34.285Z,98514.84
2023-04-01T12:35:18.461Z,98513.78
2023-04-01T12:37:55.449Z,98519.22
2023-04-01T12:40:38.240Z,98520.53
2023-04-01T12:43:31.149Z,98523.13
2023-04-01T12:46:12.595Z,98516.78
2023-04-01T12:49:18.778Z,98521.19
2023-04-01T12:52:05.785Z,98529.41
2023-04-01T12:55:10.227Z,98531.63
2023-04-01T12:58:14.554Z,98533.47
2023-04-01T13:01:00.525Z,98539.28
2023-04-01T13:03:51.092Z,98536.88
2023-04-01T13:06:32.493Z,98538.72
2023-04-01T13:09:18.018Z,98539.41
2023-04-01T13:11:52.842Z,98539.72
2023-04-01T13:15:09.813Z,98534.63
2023-04-01T13:17:48.574Z,98540.88
2023-04-01T13:20:27.349Z,98549.94
2023-04-01T13:23:11.622Z,98544.13
2023-04-01T13:25:52.512Z,98553.56
2023-04-01T13:28:29.209Z,98548.56
2023-04-01T13:31:05.159Z,98563.19
2023-04-01T13:33:44.698Z,98571.75
2023-04-01T13:36:23.727Z,98575.84
2023-04-01T13:39:13.313Z,98577.91
2023-04-01T13:41:57.250Z,98577.75
2023-04-01T13:44:35.961Z,98578.09
2023-04-01T13:47:26.840Z,98578.69
2023-04-01T13:50:26.215Z,98583.03
2023-04-01T13:53:13.613Z,98576.06
2023-04-01T13:55:54.614Z,98584.56
2023-04-01T13:58:48.467Z,98584.69
2023-04-01T14:01:26.216Z,98588.63
2023-04-01T14:04:15.501Z,98592.72
2023-04-01T14:06:59.068Z,98592.50
2023-04-01T14:09:47.869Z,98592.59
2023-04-01T14:12:30.127Z,98594.59
2023-04-01T14:15:25.607Z,98603.25
2023-04-01T14:18:04.447Z,98599.78
2023-04-01T14:20:42.697Z,98608.25
2023-04-01T14:23:45.045Z,98608.84
2023-04-01T14:26:31.137Z,98614.38
2023-04-01T14:29:12.394Z,98611.09
2023-04-01T14:32:08.932Z,98612.75
2023-04-01T14:34:54.255Z,98614.22
2023-04-01T14:37:40.035Z,98623.44
2023-04-01T14:40:24.350Z,98624.53
2023-04-01T14:43:13.020Z,98625.66
2023-04-01T14:45:57.580Z,98622.75
2023-04-01T14:48:34.493Z,98639.19
2023-04-01T14:51:12.019Z,98636.66
2023-04-01T14:53:47.063Z,98646.13
2023-04-01T14:56:43.083Z,98636.44
2023-04-01T14:59:13.344Z,98638.44
2023-04-01T15:01:49.539Z,98643.09
2023-04-01T15:04:46.571Z,98644.41
2023-04-01T15:07:35.181Z,98649.22
2023-04-01T15:10:15.107Z,98654.47
2023-04-01T15:12:53.564Z,98653.88
2023-04-01T15:15:34.324Z,98653.00
2023-04-01T15:18:24.311Z,98665.13
2023-04-01T15:21:09.092Z,98657.97
2023-04-01T15:23:48.934Z,98661.91
2023-04-01T15:26:31.375Z,98659.91
2023-04-01T15:29:15.979Z,98668.03
2023-04-01T15:31:54.075Z,98667.56
2023-04-01T15:34:34.346Z,98664.53
2023-04-01T15:37:14.202Z,98661.41
2023-04-01T15:39:54.851Z,98664.97
2023-04-01T15:42:40.887Z,98668.22
2023-04-01T15:45:36.324Z,98673.44
2023-04-01T15:48:24.991Z,98677.91
2023-04-01T15:51:13.073Z,98675.97
2023-04-01T15:54:26.205Z,98688.88
2023-04-01T15:57:08.197Z,98699.41
2023-04-01T15:59:54.311Z,98700.38
2023-04-01T16:02:33.590Z,98697.38
2023-04-01T16:05:12.090Z,98705.66
2023-04-01T16:07:57.016Z,98711.25
2023-04-01T16:10:40.575Z,98716.44
2023-04-01T16:13:30.759Z,98722.03
2023-04-01T16:16:12.135Z,98718.78
2023-04-01T16:19:00.831Z,98724.09
2023-04-01T16:21:46.054Z,98726.69
2023-04-01T16:24:24.576Z,98725.63
2023-04-01T16:27:00.118Z,98725.09
2023-04-01T16:29:38.541Z,98722.91
2023-04-01T16:32:39.923Z,98727.72
2023-04-01T16:35:29.382Z,98732.50
2023-04-01T16:38:07.843Z,98742.84
2023-04-01T16:41:01.356Z,98744.38
2023-04-01T16:43:41.085Z,98743.84
2023-04-01T16:46:36.496Z,98751.91
2023-04-01T16:49:26.587Z,98755.41
2023-04-01T16:52:00.114Z,98752.53
2023-04-01T16:54:36.323Z,98755.28
2023-04-01T16:57:18.640Z,98752.72
2023-04-01T16:59:56.380Z,98751.41
2023-04-01T17:02:29.581Z,98756.06
2023-04-01T17:05:04.203Z,98752.44
2023-04-01T17:07:46.709Z,98763.56
2023-04-01T17:10:46.175Z,98766.69
2023-04-01T17:13:43.212Z,98765.63
2023-04-01T17:16:41.918Z,98766.16
2023-04-01T17:19:26.493Z,98764.97
2023-04-01T17:22:06.791Z,98778.59
2023-04-01T17:24:53.981Z,98781.69
2023-04-01T17:27:38.717Z,98788.41
2023-04-01T17:30:36.357Z,98777.03
2023-04-01T17:33:39.820Z,98772.75
2023-04-01T17:36:19.375Z,98773.41
2023-04-01T17:39:02.506Z,98775.59
2023-04-01T17:41:43.686Z,98779.09
2023-04-01T17:44:24.132Z,98780.38
2023-04-01T17:47:18.320Z,98780.00
2023-04-01T17:49:57.490Z,98783.25
2023-04-01T17:52:33.210Z,98787.53
2023-04-01T17:55:31.418Z,98785.56
2023-04-01T17:58:06.358Z,98787.88
2023-04-01T18:00:54.141Z,98789.44
2023-04-01T18:03:52.963Z,98806.78
2023-04-01T18:06:37.263Z,98805.75
2023-04-01T18:09:19.057Z,98810.66
2023-04-01T18:12:00.881Z,98819.59
2023-04-01T18:14:53.072Z,98817.41
2023-04-01T18:17:42.844Z,98819.56
2023-04-01T18:20:30.001Z,98822.03
2023-04-01T18:23:05.152Z,98815.19
2023-04-01T18:25:40.926Z,98819.97
2023-04-01T18:28:23.549Z,98812.50
2023-04-01T18:30:56.980Z,98810.94
2023-04-01T18:33:33.696Z,98821.81
2023-04-01T18:36:15.707Z,98825.16
2023-04-01T18:38:54.726Z,98820.53
2023-04-01T18:41:36.436Z,98817.03
2023-04-01T18:44:26.370Z,98822.19
2023-04-01T18:47:05.614Z,98817.53
2023-04-01T18:49:45.838Z,98828.75
2023-04-01T18:52:22.032Z,98832.50
2023-04-01T18:55:11.318Z,98842.84
2023-04-01T18:57:46.640Z,98848.03
2023-04-01T19:00:23.344Z,98846.84
2023-04-01T19:02:59.622Z,98854.09
2023-04-01T19:05:34.977Z,98849.44
2023-04-01T19:08:17.005Z,98849.94
2023-04-01T19:10:53.095Z,98857.53
2023-04-01T19:13:29.430Z,98856.13
2023-04-01T19:16:08.524Z,98859.47
2023-04-01T19:18:56.481Z,98856.91
2023-04-01T19:21:30.214Z,98873.22
2023-04-01T19:24:36.021Z,98868.41
2023-04-01T19:27:17.738Z,98866.31
2023-04-01T19:30:04.896Z,98868.91
2023-04-01T19:32:50.905Z,98862.81
2023-04-01T19:35:36.259Z,98870.59
2023-04-01T19:38:14.310Z,98876.81
2023-04-01T19:40:55.391Z,98874.06
2023-04-01T19:43:49.513Z,98876.03
2023-04-01T19:46:27.445Z,98865.69
2023-04-01T19:49:22.139Z,98868.13
2023-04-01T19:51:57.948Z,98872.53
2023-04-01T19:54:37.386Z,98871.38
2023-04-01T19:57:17.948Z,98870.81
2023-04-01T20:00:05.835Z,98868.09
2023-04-01T20:03:00.820Z,98873.00
2023-04-01T20:06:02.407Z,98873.13
2023-04-01T20:08:40.238Z,98886.59
2023-04-01T20:11:20.857Z,98886.03
2023-04-01T20:14:00.776Z,98891.88
2023-04-01T20:16:53.140Z,98889.91
2023-04-01T20:19:32.139Z,98891.88
2023-04-01T20:22:04.222Z,98895.19
2023-04-01T20:24:37.701Z,98897.38
2023-04-01T20:27:17.724Z,98898.16
2023-04-01T20:30:15.528Z,98897.09
2023-04-01T20:33:08.077Z,98895.84
2023-04-01T20:36:04.407Z,98899.13
2023-04-01T20:39:00.752Z,98901.06
2023-04-01T20:41:43.132Z,98901.84
2023-04-01T20:44:15.577Z,98900.03
2023-04-01T20:46:51.703Z,98899.75
2023-04-01T20:49:42.400Z,98904.16
2023-04-01T20:52:24.591Z,98899.13
2023-04-01T20:55:22.430Z,98902.91
2023-04-01T20:58:07.721Z,98912.47
2023-04-01T21:00:55.390Z,98897.72
2023-04-01T21:03:36.748Z,98902.13
2023-04-01T21:06:39.284Z,98902.91
2023-04-01T21:09:37.042Z,98906.50
2023-04-01T21:12:14.440Z,98898.25
2023-04-01T21:15:05.558Z,98906.66
2023-04-01T21:17:52.964Z,98904.31
2023-04-01T21:20:37.369Z,98901.66
2023-04-01T21:23:21.443Z,98906.56
2023-04-01T21:26:05.667Z,98908.88
2023-04-01T21:28:53.111Z,98913.25
2023-04-01T21:31:33.992Z,98914.59
2023-04-01T21:34:18.141Z,98924.84
2023-04-01T21:37:03.371Z,98926.03
2023-04-01T21:39:52.557Z,98931.44
2023-04-01T21:42:34.807Z,98932.72
2023-04-01T21:45:31.544Z,98933.00
2023-04-01T21:48:26.031Z,98935.00
2023-04-01T21:51:28.826Z,98938.88
2023-04-01T21:54:38.553Z,98940.69
2023-04-01T21:57:52.570Z,98946.19
2023-04-01T22:00:26.392Z,98941.69
2023-04-01T22:03:30.494Z,98942.88
2023-04-01T22:06:10.895Z,98938.59
2023-04-01T22:09:04.375Z,98944.06
2023-04-01T22:11:46.061Z,98945.59
2023-04-01T22:14:22.550Z,98943.91
2023-04-01T22:16:58.943Z,98944.69
2023-04-01T22:19:37.597Z,98945.59
2023-04-01T22:22:15.777Z,98955.66
2023-04-01T22:24:57.819Z,98950.34
2023-04-01T22:27:33.307Z,98955.66
2023-04-01T22:30:14.326Z,98954.13
2023-04-01T22:32:48.122Z,98962.91
2023-04-01T22:35:38.057Z,98958.50
2023-04-01T22:38:20.160Z,98966.28
2023-04-01T22:40:58.896Z,98968.06
2023-04-01T22:43:38.492Z,98960.47
2023-04-01T22:46:28.940Z,98959.81
2023-04-01T22:49:07.220Z,98952.56
2023-04-01T22:51:48.163Z,98952.56
2023-04-01T22:54:25.245Z,98961.38
2023-04-01T22:56:58.238Z,98950.75
2023-04-01T22:59:34.570Z,98954.13
2023-04-01T23:02:11.446Z,98949.84
2023-04-01T23:04:44.315Z,98954.75
2023-04-01T23:07:48.142Z,98959.00
2023-04-01T23:10:25.094Z,98966.00
2023-04-01T23:12:57.601Z,98962.66
2023-04-01T23:15:27.363Z,98964.06
2023-04-01T23:18:20.384Z,98971.38
2023-04-01T23:21:04.585Z,98969.44
2023-04-01T23:23:46.529Z,98966.91
2023-04-01T23:26:22.840Z,98967.97
2023-04-01T23:28:54.249Z,98974.66
2023-04-01T23:31:33.802Z,98974.13
2023-04-01T23:34:22.731Z,98978.59
2023-04-01T23:36:55.822Z,98971.47
2023-04-01T23:39:29.109Z,98964.38
2023-04-01T23:42:01.854Z,98963.91
2023-04-01T23:44:35.300Z,98968.34
2023-04-01T23:47:06.872Z,98965.75
2023-04-01T23:49:44.310Z,98962.41
2023-04-01T23:52:17.177Z,98971.34
2023-04-01T23:54:51.772Z,98972.25
2023-04-01T23:57:26.462Z,98974.81
